Time;durP1;ratioP1;P1;durP2;ratioP2;P2;SDS_P1;SDS_P2;PMS_P1;PMS_P2;Temp;Humidity;BMP_temperature;BMP_pressure;BME280_temperature;BME280_humidity;BME280_pressure;Samples;Min_cycle;Max_cycle;Signal;HPM_P1;HPM_P2
2022/03/17 00:02:23;;;;;;;35.15;17.35;;;;;;;3.09;89.85;100105.97;1726673;81;20998;-80
2022/03/17 00:04:51;;;;;;;33.55;17.00;;;;;;;3.05;89.75;100109.30;1734019;81;21072;-77
2022/03/17 00:07:18;;;;;;;29.02;14.55;;;;;;;3.01;88.82;100109.22;1736979;82;20982;-77
2022/03/17 00:09:45;;;;;;;33.35;15.98;;;;;;;2.98;88.69;100116.42;1714383;82;21018;-76
2022/03/17 00:12:13;;;;;;;34.05;16.27;;;;;;;2.98;88.03;100118.59;1707530;84;21549;-76
2022/03/17 00:14:39;;;;;;;32.08;16.23;;;;;;;2.96;88.58;100112.95;1714713;82;21029;-76
2022/03/17 00:17:06;;;;;;;31.17;15.35;;;;;;;2.94;88.70;100110.34;1702592;82;21026;-75
2022/03/17 00:19:32;;;;;;;33.00;14.87;;;;;;;2.97;87.74;100115.98;1712999;82;21081;-76
2022/03/17 00:21:59;;;;;;;33.35;15.08;;;;;;;2.97;88.61;100112.13;1679114;83;21530;-77
2022/03/17 00:24:27;;;;;;;33.83;15.15;;;;;;;2.99;88.67;100130.59;1703182;83;21074;-77
2022/03/17 00:26:54;;;;;;;34.67;15.53;;;;;;;3.01;89.61;100121.64;1695786;83;21026;-79
2022/03/17 00:29:20;;;;;;;35.20;15.88;;;;;;;3.03;89.44;100122.54;1692336;84;20963;-78
2022/03/17 00:31:47;;;;;;;30.25;14.75;;;;;;;3.04;89.60;100126.83;1705805;84;21511;-79
2022/03/17 00:34:13;;;;;;;30.92;14.83;;;;;;;3.07;89.10;100122.20;1696789;82;21015;-78
2022/03/17 00:36:40;;;;;;;36.25;15.83;;;;;;;3.06;89.83;100117.88;1718771;83;21011;-78
2022/03/17 00:39:08;;;;;;;35.13;15.28;;;;;;;3.08;89.04;100120.92;1703497;82;21035;-79
2022/03/17 00:41:35;;;;;;;34.33;17.98;;;;;;;3.10;89.38;100123.53;1706086;84;21019;-76
2022/03/17 00:44:03;;;;;;;33.60;16.23;;;;;;;3.11;89.36;100126.56;1685962;82;21055;-75
2022/03/17 00:46:30;;;;;;;33.63;16.97;;;;;;;3.15;89.02;100123.22;1709426;83;20970;-75
2022/03/17 00:48:56;;;;;;;32.85;16.27;;;;;;;3.17;88.81;100121.55;1701995;82;21071;-77
2022/03/17 00:51:22;;;;;;;33.20;16.52;;;;;;;3.17;89.00;100130.12;1705720;83;21490;-75
2022/03/17 00:53:49;;;;;;;33.25;17.27;;;;;;;3.18;87.38;100128.02;1703983;83;21020;-76
2022/03/17 00:56:16;;;;;;;36.73;17.62;;;;;;;3.14;88.05;100135.61;1706799;83;20983;-75
2022/03/17 00:58:45;;;;;;;35.73;16.20;;;;;;;3.14;87.50;100133.03;1704664;83;21051;-76
2022/03/17 01:01:11;;;;;;;37.75;16.97;;;;;;;3.13;86.43;100136.03;1708999;82;21018;-77
2022/03/17 01:03:37;;;;;;;38.33;16.27;;;;;;;3.07;89.08;100144.03;1708747;83;21538;-78
2022/03/17 01:06:04;;;;;;;35.20;17.10;;;;;;;3.07;88.08;100147.89;1681878;84;20991;-78
2022/03/17 01:08:32;;;;;;;33.33;16.10;;;;;;;3.07;88.61;100149.17;1702598;84;21015;-75
2022/03/17 01:10:58;;;;;;;40.00;16.73;;;;;;;3.08;88.51;100141.90;1695573;83;21023;-76
2022/03/17 01:13:24;;;;;;;40.67;17.65;;;;;;;3.10;87.56;100147.94;1704428;83;21046;-76
2022/03/17 01:15:51;;;;;;;41.30;18.42;;;;;;;3.08;88.34;100144.47;1683791;83;21062;-75
2022/03/17 01:18:21;;;;;;;35.70;17.45;;;;;;;3.08;88.30;100152.17;1702289;84;21023;-76
2022/03/17 01:20:46;;;;;;;34.27;16.67;;;;;;;3.11;87.65;100154.40;1707776;82;21907;-78
2022/03/17 01:23:12;;;;;;;36.48;16.42;;;;;;;3.08;88.50;100149.18;1710919;84;21102;-78
2022/03/17 01:25:39;;;;;;;33.60;18.05;;;;;;;3.08;88.90;100145.75;1714170;82;21510;-78
2022/03/17 01:28:06;;;;;;;36.45;17.15;;;;;;;3.08;88.68;100147.90;1715218;84;21019;-77
2022/03/17 01:30:35;;;;;;;39.25;17.67;;;;;;;3.10;88.20;100151.36;1713306;84;21025;-78
2022/03/17 01:33:03;;;;;;;37.65;18.87;;;;;;;3.11;88.09;100151.83;1705651;82;21070;-78
2022/03/17 01:35:30;;;;;;;42.25;19.27;;;;;;;3.11;87.88;100151.83;1710956;82;21030;-79
2022/03/17 01:37:56;;;;;;;37.03;18.67;;;;;;;3.11;88.38;100147.98;1706390;82;21105;-79
2022/03/17 01:40:23;;;;;;;36.30;18.92;;;;;;;3.08;88.00;100149.61;1713315;84;21589;-79
2022/03/17 01:42:49;;;;;;;37.20;18.62;;;;;;;3.06;88.59;100151.27;1702252;84;21016;-78
2022/03/17 01:45:16;;;;;;;39.53;19.17;;;;;;;3.05;88.47;100144.42;1716383;82;21038;-79
2022/03/17 01:47:46;;;;;;;36.35;18.48;;;;;;;3.04;88.79;100151.66;1702630;82;21038;-78
2022/03/17 01:50:16;;;;;;;39.75;18.67;;;;;;;3.04;87.01;100151.66;1714468;84;21332;-80
2022/03/17 01:52:43;;;;;;;36.23;17.07;;;;;;;2.97;88.26;100151.95;1696466;84;21975;-77
2022/03/17 01:55:12;;;;;;;38.02;16.50;;;;;;;2.96;86.83;100154.05;1714877;83;21034;-80
2022/03/17 01:57:40;;;;;;;39.70;17.65;;;;;;;2.92;87.72;100159.95;1696366;82;21037;-78
2022/03/17 02:00:13;;;;;;;41.42;18.30;;;;;;;2.89;88.05;100158.19;1714988;82;21010;-80
2022/03/17 02:02:42;;;;;;;39.65;17.62;;;;;;;2.88;87.78;100161.58;1706722;84;21041;-78
2022/03/17 02:05:09;;;;;;;33.85;17.50;;;;;;;2.89;88.60;100170.17;1714950;84;21046;-78
2022/03/17 02:07:36;;;;;;;49.83;19.10;;;;;;;2.93;87.06;100177.98;1708970;82;21033;-80
2022/03/17 02:10:05;;;;;;;37.85;18.30;;;;;;;2.92;88.13;100178.80;1712473;82;20995;-78
2022/03/17 02:15:16;;;;;;;43.10;18.55;;;;;;;2.96;87.54;100179.34;1695377;82;21009;-79
2022/03/17 02:17:43;;;;;;;40.45;18.12;;;;;;;2.99;88.07;100183.25;1712669;84;21026;-78
2022/03/17 02:20:14;;;;;;;39.25;18.25;;;;;;;3.01;87.86;100185.01;1701544;84;21064;-81
2022/03/17 02:22:48;;;;;;;44.85;19.65;;;;;;;3.06;87.73;100182.97;1712891;82;21006;-79
2022/03/17 02:25:35;;;;;;;43.58;19.73;;;;;;;3.08;87.19;100190.29;1702711;82;21399;-79
2022/03/17 02:28:04;;;;;;;43.52;20.65;;;;;;;3.08;87.70;100190.72;1714520;82;21018;-78
2022/03/17 02:30:35;;;;;;;40.98;19.98;;;;;;;3.12;87.83;100191.23;1700041;82;21034;-78
2022/03/17 02:33:06;;;;;;;40.38;20.68;;;;;;;3.12;87.75;100193.41;1714320;82;21026;-79
2022/03/17 02:35:37;;;;;;;41.00;19.75;;;;;;;3.13;87.27;100194.27;1698566;82;21034;-79
2022/03/17 02:38:06;;;;;;;39.75;19.23;;;;;;;3.08;87.54;100190.29;1714336;82;21588;-80
2022/03/17 02:40:35;;;;;;;45.33;21.00;;;;;;;3.09;87.48;100195.04;1713505;82;21046;-77
2022/03/17 02:43:04;;;;;;;39.05;19.82;;;;;;;3.07;86.04;100196.70;1712333;84;21022;-81
2022/03/17 02:45:31;;;;;;;44.05;20.20;;;;;;;3.02;86.53;100200.86;1699711;82;21567;-78
2022/03/17 02:47:58;;;;;;;43.98;18.82;;;;;;;2.94;86.65;100202.81;1714303;82;21133;-77
2022/03/17 02:50:25;;;;;;;41.85;19.85;;;;;;;2.90;86.33;100206.57;1701587;84;21099;-78
2022/03/17 02:52:51;;;;;;;39.25;20.23;;;;;;;2.87;86.17;100213.80;1708354;82;21030;-78
2022/03/17 02:55:18;;;;;;;45.23;20.12;;;;;;;2.86;85.71;100215.90;1714437;84;21085;-79
2022/03/17 02:57:46;;;;;;;42.60;19.98;;;;;;;2.83;87.52;100215.84;1714439;84;21553;-79
2022/03/17 03:00:14;;;;;;;42.50;19.75;;;;;;;2.84;86.74;100213.70;1714507;84;21058;-80
2022/03/17 03:02:42;;;;;;;40.08;20.02;;;;;;;2.88;86.26;100219.80;1706709;82;21078;-79
2022/03/17 03:05:10;;;;;;;44.13;18.77;;;;;;;2.86;86.62;100215.90;1713656;84;21083;-78
2022/03/17 03:07:37;;;;;;;43.45;20.97;;;;;;;2.87;86.61;100225.36;1730314;81;21558;-80
2022/03/17 03:10:06;;;;;;;42.62;19.70;;;;;;;2.82;86.82;100223.08;1714297;82;21046;-77
2022/03/17 03:12:32;;;;;;;43.28;19.92;;;;;;;2.88;86.50;100225.79;1714549;82;21034;-79
2022/03/17 03:14:59;;;;;;;44.53;20.35;;;;;;;2.91;86.65;100237.86;1714351;82;21046;-79
2022/03/17 03:17:26;;;;;;;45.83;21.82;;;;;;;2.91;86.25;100240.01;1712545;82;21546;-80
2022/03/17 03:19:52;;;;;;;46.30;22.20;;;;;;;2.92;86.16;100240.45;1686262;82;21439;-80
2022/03/17 03:22:20;;;;;;;41.48;20.32;;;;;;;2.93;85.84;100247.34;1713417;84;21006;-78
2022/03/17 03:24:47;;;;;;;42.38;20.45;;;;;;;2.91;85.57;100247.72;1711029;83;21034;-78
2022/03/17 03:27:14;;;;;;;43.73;21.62;;;;;;;2.90;85.61;100245.96;1698889;83;21518;-79
2022/03/17 03:29:41;;;;;;;43.45;22.20;;;;;;;2.87;85.19;100250.18;1709174;82;21042;-75
2022/03/17 03:32:08;;;;;;;49.73;21.40;;;;;;;2.89;84.37;100258.37;1706074;83;21620;-76
2022/03/17 03:34:35;;;;;;;43.80;20.12;;;;;;;2.83;84.69;100255.66;1709157;83;21079;-76
2022/03/17 03:39:47;;;;;;;44.27;21.12;;;;;;;2.79;85.04;100257.27;1694955;83;21008;-78
2022/03/17 03:42:14;;;;;;;43.48;21.33;;;;;;;2.82;84.28;100268.02;1682844;84;21065;-78
2022/03/17 03:44:41;;;;;;;46.28;20.72;;;;;;;2.79;84.88;100271.81;1696942;83;21027;-78
2022/03/17 03:47:08;;;;;;;38.25;18.75;;;;;;;2.82;84.71;100277.44;1706635;83;21054;-78
2022/03/17 03:49:39;;;;;;;42.60;19.17;;;;;;;2.80;85.21;100276.11;1709375;84;21547;-78
2022/03/17 03:52:09;;;;;;;42.53;18.98;;;;;;;2.82;84.77;100270.59;1708296;84;21047;-78
2022/03/17 03:54:37;;;;;;;44.98;20.08;;;;;;;2.82;84.86;100279.58;1695307;84;21012;-78
2022/03/17 03:57:05;;;;;;;41.42;19.27;;;;;;;2.85;84.82;100280.95;1710189;83;21038;-80
2022/03/17 03:59:32;;;;;;;40.48;19.45;;;;;;;2.88;84.72;100284.87;1701562;83;21563;-79
2022/03/17 04:02:04;;;;;;;45.83;21.40;;;;;;;2.88;84.92;100284.01;1706503;84;21110;-80
2022/03/17 04:04:34;;;;;;;39.53;20.30;;;;;;;2.90;84.90;100287.06;1691705;84;21773;-77
2022/03/17 04:07:04;;;;;;;45.58;21.45;;;;;;;2.94;84.77;100300.43;1688464;83;21018;-78
2022/03/17 04:09:34;;;;;;;53.38;23.45;;;;;;;2.96;85.08;100303.94;1698346;83;21003;-79
2022/03/17 04:12:03;;;;;;;43.05;20.68;;;;;;;2.98;84.93;100311.66;1708283;83;21038;-79
2022/03/17 04:14:30;;;;;;;43.65;20.80;;;;;;;2.99;84.80;100310.42;1713230;83;21030;-80
2022/03/17 04:16:57;;;;;;;46.15;22.58;;;;;;;2.99;84.74;100316.84;1709588;83;21296;-81
2022/03/17 04:19:24;;;;;;;43.95;20.52;;;;;;;2.98;84.34;100325.40;1705365;83;21042;-80
2022/03/17 04:21:52;;;;;;;41.28;19.67;;;;;;;2.96;84.60;100328.34;1705463;84;21105;-81
2022/03/17 04:24:20;;;;;;;42.00;22.00;;;;;;;2.92;84.58;100334.63;1710241;82;21553;-81
2022/03/17 04:26:47;;;;;;;39.38;18.12;;;;;;;2.87;84.91;100337.09;1713381;84;21066;-82
2022/03/17 04:29:15;;;;;;;42.23;19.87;;;;;;;2.84;84.32;100339.56;1713975;84;21024;-81
2022/03/17 04:31:44;;;;;;;43.33;20.97;;;;;;;2.79;84.79;100343.30;1714722;82;21050;-79
2022/03/17 04:34:11;;;;;;;44.33;20.82;;;;;;;2.79;84.82;100352.72;1713559;82;21048;-78
2022/03/17 04:36:38;;;;;;;48.38;22.15;;;;;;;2.77;85.22;100346.67;1721140;81;21478;-79
2022/03/17 04:39:07;;;;;;;45.28;20.75;;;;;;;2.79;85.24;100343.73;1730577;82;21074;-81
2022/03/17 04:41:33;;;;;;;42.98;21.10;;;;;;;2.78;85.28;100349.68;1725143;81;21508;-79
2022/03/17 04:44:00;;;;;;;47.40;21.00;;;;;;;2.77;85.55;100348.81;1731978;81;21007;-78
2022/03/17 04:46:27;;;;;;;46.20;21.35;;;;;;;2.75;85.87;100352.19;1724411;82;21043;-81
2022/03/17 04:48:54;;;;;;;45.08;20.97;;;;;;;2.76;85.91;100361.61;1730251;82;21015;-80
2022/03/17 04:51:20;;;;;;;45.83;21.35;;;;;;;2.78;86.08;100354.39;1713198;84;21023;-81
2022/03/17 04:53:47;;;;;;;42.98;21.25;;;;;;;2.81;85.79;100366.47;1721818;81;21025;-80
2022/03/17 04:56:20;;;;;;;42.15;19.67;;;;;;;2.81;85.90;100356.62;1714179;82;21525;-78
2022/03/17 04:58:45;;;;;;;48.42;22.45;;;;;;;2.83;84.86;100367.38;1696925;82;21014;-77
2022/03/17 05:01:15;;;;;;;46.63;21.87;;;;;;;2.79;85.66;100368.12;1714678;82;21522;-78
2022/03/17 05:03:42;;;;;;;43.00;22.30;;;;;;;2.79;85.59;100372.84;1700143;82;21034;-79
2022/03/17 05:06:14;;;;;;;46.68;23.18;;;;;;;2.82;85.44;100377.60;1714740;82;21062;-78
2022/03/17 05:08:41;;;;;;;48.23;23.00;;;;;;;2.86;84.81;100376.85;1702001;82;20975;-77
2022/03/17 05:11:09;;;;;;;45.95;22.55;;;;;;;2.82;85.75;100377.60;1714462;82;21001;-77
2022/03/17 05:13:38;;;;;;;49.27;23.05;;;;;;;2.79;85.46;100375.41;1713174;82;21010;-77
2022/03/17 05:16:07;;;;;;;46.75;23.77;;;;;;;2.77;84.75;100381.34;1709626;84;21071;-77
2022/03/17 05:18:34;;;;;;;49.50;22.95;;;;;;;2.74;85.31;100383.39;1703241;82;21066;-79
2022/03/17 05:21:01;;;;;;;46.53;23.12;;;;;;;2.68;84.83;100392.64;1714474;82;21074;-78
2022/03/17 05:23:30;;;;;;;55.55;22.15;;;;;;;2.64;83.73;100381.83;1707947;82;20992;-79
2022/03/17 05:25:57;;;;;;;51.53;22.65;;;;;;;2.59;85.16;100394.55;1709711;83;21089;-76
2022/03/17 05:28:24;;;;;;;56.08;22.98;;;;;;;2.55;85.02;100393.59;1692069;82;21047;-78
2022/03/17 05:30:51;;;;;;;49.65;23.02;;;;;;;2.55;84.90;100399.14;1709384;83;21534;-79
2022/03/17 05:33:19;;;;;;;48.50;22.95;;;;;;;2.56;85.92;100400.45;1690126;84;21012;-78
2022/03/17 05:35:45;;;;;;;47.38;22.15;;;;;;;2.58;85.51;100405.20;1709395;83;22236;-78
2022/03/17 05:38:12;;;;;;;48.85;22.20;;;;;;;2.62;84.48;100403.60;1704542;83;21042;-77
2022/03/17 05:40:39;;;;;;;53.65;22.98;;;;;;;2.63;85.16;100408.34;1709325;82;21566;-78
2022/03/17 05:43:09;;;;;;;47.38;22.32;;;;;;;2.67;85.32;100414.02;1693123;83;20999;-77
2022/03/17 05:45:38;;;;;;;52.95;22.35;;;;;;;2.78;85.24;100412.17;1662293;84;21032;-76
2022/03/17 05:48:07;;;;;;;52.70;21.97;;;;;;;2.83;85.17;100414.89;1710570;83;21062;-77
2022/03/17 05:50:39;;;;;;;53.73;25.52;;;;;;;2.90;85.00;100410.36;1698500;83;21078;-78
2022/03/17 05:53:07;;;;;;;56.88;27.02;;;;;;;2.99;84.58;100420.03;1706150;83;21552;-79
2022/03/17 05:55:34;;;;;;;52.48;25.02;;;;;;;3.04;84.82;100424.00;1708110;83;21051;-81
2022/03/17 05:58:01;;;;;;;54.20;25.88;;;;;;;3.11;84.83;100432.34;1706266;83;21042;-79
2022/03/17 06:00:30;;;;;;;53.52;24.60;;;;;;;3.20;84.40;100438.98;1682416;84;21031;-79
2022/03/17 06:02:58;;;;;;;47.88;23.15;;;;;;;3.30;84.09;100438.81;1699772;83;21038;-76
2022/03/17 06:05:27;;;;;;;52.93;23.77;;;;;;;3.36;83.35;100438.58;1678076;85;21044;-78
2022/03/17 06:08:00;;;;;;;54.18;23.22;;;;;;;3.43;83.99;100442.58;1692073;84;21023;-76
2022/03/17 06:10:28;;;;;;;49.23;22.75;;;;;;;3.50;83.60;100441.89;1680133;84;21086;-78
2022/03/17 06:12:56;;;;;;;43.28;22.62;;;;;;;3.58;82.88;100445.12;1686730;84;21062;-79
2022/03/17 06:15:24;;;;;;;48.95;23.15;;;;;;;3.66;82.47;100452.14;1707279;83;21089;-79
2022/03/17 06:17:58;;;;;;;43.98;22.80;;;;;;;3.68;82.18;100450.47;1696931;84;21058;-79
2022/03/17 06:20:29;;;;;;;42.80;20.92;;;;;;;3.73;82.04;100454.04;1707544;82;21054;-79
2022/03/17 06:23:01;;;;;;;46.05;23.25;;;;;;;3.79;80.76;100455.47;1702970;83;21066;-79
2022/03/17 06:25:31;;;;;;;48.85;23.90;;;;;;;3.81;80.51;100461.95;1701927;82;21534;-78
2022/03/17 06:27:59;;;;;;;51.05;23.35;;;;;;;3.86;80.56;100456.09;1703518;84;21038;-79
2022/03/17 06:30:35;;;;;;;48.30;22.80;;;;;;;3.86;80.28;100459.95;1701826;83;21585;-79
2022/03/17 06:33:04;;;;;;;52.40;23.55;;;;;;;3.92;80.46;100465.23;1700584;84;21007;-77
2022/03/17 06:35:31;;;;;;;48.48;22.02;;;;;;;4.02;80.38;100456.42;1706472;83;21022;-79
2022/03/17 06:38:01;;;;;;;46.85;22.37;;;;;;;4.12;79.54;100459.27;1702546;84;21463;-79
2022/03/17 06:40:29;;;;;;;48.90;20.43;;;;;;;4.11;79.01;100460.08;1705999;83;20999;-79
2022/03/17 06:42:57;;;;;;;42.67;19.98;;;;;;;4.09;78.76;100465.61;1691236;84;20995;-78
2022/03/17 06:45:24;;;;;;;44.15;21.07;;;;;;;4.16;78.51;100473.94;1682316;84;21522;-79
2022/03/17 06:47:51;;;;;;;42.75;19.80;;;;;;;4.23;79.42;100475.36;1695430;83;21002;-78
2022/03/17 06:50:20;;;;;;;37.63;19.20;;;;;;;4.32;79.84;100471.72;1706719;84;21494;-79
2022/03/17 06:52:47;;;;;;;41.40;17.80;;;;;;;4.39;80.01;100474.44;1689993;84;21003;-79
2022/03/17 06:55:14;;;;;;;36.85;17.70;;;;;;;4.47;77.97;100473.32;1706923;84;21022;-79
2022/03/17 06:57:41;;;;;;;40.80;19.75;;;;;;;4.57;78.76;100479.55;1692883;84;20975;-80
2022/03/17 07:00:13;;;;;;;36.33;18.65;;;;;;;4.69;77.47;100479.80;1706846;83;21062;-79
2022/03/17 07:02:40;;;;;;;41.45;18.50;;;;;;;4.80;77.15;100480.47;1704729;83;21028;-79
2022/03/17 07:05:08;;;;;;;42.13;19.82;;;;;;;4.91;76.81;100482.39;1687988;84;21509;-79
2022/03/17 07:07:35;;;;;;;33.70;16.87;;;;;;;4.99;75.32;100482.55;1703622;83;21090;-80
2022/03/17 07:10:06;;;;;;;40.08;18.98;;;;;;;5.10;74.90;100488.80;1667500;84;20975;-79
2022/03/17 07:12:34;;;;;;;45.45;18.42;;;;;;;5.16;75.54;100487.62;1702738;83;21066;-79
2022/03/17 07:15:00;;;;;;;43.00;20.23;;;;;;;5.21;74.73;100487.70;1686761;84;20988;-83
2022/03/17 07:17:34;;;;;;;35.92;18.02;;;;;;;5.31;75.10;100489.63;1716085;83;21058;-84
2022/03/17 07:19:59;;;;;;;35.48;17.70;;;;;;;5.30;73.03;100487.87;1682879;84;21088;-81
2022/03/17 07:22:27;;;;;;;40.80;17.35;;;;;;;5.36;73.06;100499.59;1708471;84;21014;-82
2022/03/17 07:24:54;;;;;;;34.25;15.55;;;;;;;5.43;72.34;100502.28;1710019;83;21564;-79
2022/03/17 07:27:22;;;;;;;33.50;17.07;;;;;;;5.43;72.18;100502.28;1718317;82;21054;-81
2022/03/17 07:29:52;;;;;;;35.00;16.27;;;;;;;5.42;71.36;100510.88;1729980;82;21007;-83
2022/03/17 07:32:19;;;;;;;32.15;16.40;;;;;;;5.45;71.48;100505.36;1690152;84;21023;-81
2022/03/17 07:34:49;;;;;;;33.90;16.65;;;;;;;5.45;71.08;100504.47;1718569;82;21013;-80
2022/03/17 07:37:16;;;;;;;28.05;14.00;;;;;;;5.52;70.69;100503.75;1717525;82;20988;-84
2022/03/17 07:39:43;;;;;;;26.33;13.35;;;;;;;5.55;68.11;100507.66;1719481;80;21022;-84
2022/03/17 07:42:11;;;;;;;42.98;17.10;;;;;;;5.59;69.60;100500.45;1723703;82;20978;-83
2022/03/17 07:44:56;;;;;;;44.13;20.17;;;;;;;5.62;69.06;100508.23;1726516;82;21088;-79
2022/03/17 07:47:49;;;;;;;50.30;20.82;;;;;;;5.71;69.34;100507.11;1732608;80;21121;-88
2022/03/17 07:50:16;;;;;;;35.17;15.28;;;;;;;5.69;64.94;100510.09;1770520;78;21047;-84
2022/03/17 07:52:44;;;;;;;25.23;12.88;;;;;;;5.78;67.76;100510.66;1759565;80;21027;-85
2022/03/17 07:55:11;;;;;;;27.95;12.98;;;;;;;5.81;66.79;100517.57;1772884;80;21351;-81
2022/03/17 07:57:38;;;;;;;29.57;13.62;;;;;;;5.75;64.90;100511.48;1779692;80;20949;-81
2022/03/17 08:00:08;;;;;;;37.40;17.48;;;;;;;5.80;66.35;100507.67;1773137;80;21063;-82
2022/03/17 08:02:36;;;;;;;29.70;12.53;;;;;;;5.73;65.67;100512.27;1768365;80;20969;-81
2022/03/17 08:05:04;;;;;;;27.48;13.08;;;;;;;5.82;63.04;100513.73;1739383;81;21051;-82
2022/03/17 08:07:31;;;;;;;34.08;15.85;;;;;;;5.80;63.10;100519.29;1743975;81;20924;-83
2022/03/17 08:09:58;;;;;;;30.23;16.97;;;;;;;5.88;65.41;100515.13;1760663;80;20958;-82
2022/03/17 08:12:31;;;;;;;39.73;20.90;;;;;;;6.03;66.14;100527.46;1782671;80;20986;-81
2022/03/17 08:14:57;;;;;;;31.95;13.35;;;;;;;6.12;65.26;100527.59;1779934;80;20987;-81
2022/03/17 08:17:23;;;;;;;31.23;15.95;;;;;;;6.15;63.39;100530.67;1774343;80;21026;-82
2022/03/17 08:19:50;;;;;;;27.27;13.65;;;;;;;6.27;64.77;100528.70;1768518;80;20982;-82
2022/03/17 08:22:17;;;;;;;27.10;13.72;;;;;;;6.28;62.67;100527.84;1754820;80;21156;-83
2022/03/17 08:24:43;;;;;;;30.40;14.40;;;;;;;6.28;62.37;100522.67;1768028;79;21002;-81
2022/03/17 08:27:10;;;;;;;29.00;13.80;;;;;;;6.47;63.78;100524.69;1771665;78;21007;-87
2022/03/17 08:29:42;;;;;;;28.17;12.82;;;;;;;6.50;62.13;100526.01;1759038;80;21063;-91
2022/03/17 08:32:07;;;;;;;30.70;12.65;;;;;;;6.60;62.04;100528.30;1751321;80;21021;-83
2022/03/17 08:34:34;;;;;;;31.68;13.20;;;;;;;6.71;61.63;100528.47;1762129;78;21140;-88
2022/03/17 08:37:02;;;;;;;33.05;13.78;;;;;;;6.81;63.04;100526.45;1705971;82;21074;-88
2022/03/17 08:39:29;;;;;;;26.35;12.28;;;;;;;6.69;59.21;100530.16;1729914;80;21112;-88
2022/03/17 08:41:56;;;;;;;29.50;14.78;;;;;;;6.73;59.19;100535.38;1670799;84;21124;-91
2022/03/17 08:44:23;;;;;;;20.43;11.63;;;;;;;6.77;61.78;100536.30;1675432;83;20994;-89
2022/03/17 08:49:35;;;;;;;29.57;14.87;;;;;;;6.83;58.95;100539.40;1683702;84;21127;-81
2022/03/17 08:52:04;;;;;;;24.75;13.22;;;;;;;7.03;62.13;100536.63;1690819;82;21001;-85
2022/03/17 08:54:34;;;;;;;39.10;16.17;;;;;;;6.93;58.62;100539.52;1685292;84;21065;-81
2022/03/17 08:57:01;;;;;;;33.33;12.98;;;;;;;6.94;58.89;100541.28;1685038;82;21108;-80
2022/03/17 08:59:34;;;;;;;36.25;15.13;;;;;;;6.80;59.06;100544.52;1680483;84;21036;-81
2022/03/17 09:02:06;;;;;;;34.73;16.12;;;;;;;6.79;58.94;100544.94;1680981;84;21063;-79
2022/03/17 09:04:34;;;;;;;29.20;13.10;;;;;;;7.02;61.04;100543.08;1682833;84;21586;-80
2022/03/17 09:07:02;;;;;;;23.67;12.58;;;;;;;7.22;60.46;100544.20;1650662;85;21082;-80
2022/03/17 09:09:32;;;;;;;29.77;15.72;;;;;;;7.24;58.10;100543.80;1683437;84;21059;-80
2022/03/17 09:12:05;;;;;;;24.63;12.13;;;;;;;7.37;60.27;100536.59;1683039;84;21065;-80
2022/03/17 09:14:37;;;;;;;25.62;10.70;;;;;;;7.49;58.30;100542.33;1682627;84;21578;-81
2022/03/17 09:17:04;;;;;;;25.62;11.63;;;;;;;7.56;58.52;100541.98;1686579;83;21082;-83
2022/03/17 09:19:32;;;;;;;24.95;13.65;;;;;;;7.55;59.08;100535.92;1687721;84;21035;-83
2022/03/17 09:22:00;;;;;;;27.45;13.90;;;;;;;7.69;59.43;100547.70;1685269;84;21034;-79
2022/03/17 09:24:30;;;;;;;22.70;12.23;;;;;;;7.89;59.78;100547.03;1666611;84;21019;-79
2022/03/17 09:26:55;;;;;;;20.95;11.15;;;;;;;8.04;58.81;100539.81;1679504;84;21603;-79
2022/03/17 09:29:22;;;;;;;26.95;13.53;;;;;;;8.20;59.51;100546.88;1720570;82;21018;-79
2022/03/17 09:31:50;;;;;;;25.08;11.43;;;;;;;8.43;59.15;100553.97;1718592;82;21049;-78
2022/03/17 09:34:16;;;;;;;26.65;14.18;;;;;;;8.59;57.59;100558.39;1718004;82;20995;-78
2022/03/17 09:36:43;;;;;;;26.80;15.03;;;;;;;8.77;56.66;100557.64;1678326;84;21159;-80
2022/03/17 09:41:55;;;;;;;34.25;16.90;;;;;;;8.96;55.63;100558.18;1713677;82;21096;-87
2022/03/17 09:44:22;;;;;;;20.08;10.25;;;;;;;9.05;56.24;100563.86;1713853;82;21580;-84
2022/03/17 09:46:49;;;;;;;25.05;13.03;;;;;;;9.05;55.37;100569.45;1730744;81;21056;-81
2022/03/17 09:49:16;;;;;;;22.60;10.63;;;;;;;9.06;55.66;100566.02;1739622;81;21010;-80
2022/03/17 09:51:43;;;;;;;24.47;13.10;;;;;;;9.08;53.50;100570.78;1744081;81;21251;-81
2022/03/17 09:54:10;;;;;;;35.92;15.28;;;;;;;9.14;53.27;100569.51;1753903;81;20980;-82
2022/03/17 09:56:37;;;;;;;31.27;12.98;;;;;;;9.26;54.99;100569.55;1741217;81;20999;-85
2022/03/17 09:59:06;;;;;;;23.07;12.50;;;;;;;9.23;53.85;100572.16;1740634;81;21095;-79
2022/03/17 10:01:34;;;;;;;21.73;11.25;;;;;;;9.32;53.93;100580.39;1745005;81;21028;-80
2022/03/17 10:04:03;;;;;;;23.00;13.03;;;;;;;9.25;51.95;100575.62;1739518;81;21065;-81
2022/03/17 10:06:30;;;;;;;21.82;10.05;;;;;;;9.27;52.86;100575.20;1745954;81;21508;-82
2022/03/17 10:08:58;;;;;;;18.55;9.73;;;;;;;9.34;53.23;100574.78;1748173;81;21091;-80
2022/03/17 10:11:31;;;;;;;18.77;10.35;;;;;;;9.36;52.84;100573.91;1738285;81;21270;-79
2022/03/17 10:14:00;;;;;;;29.12;11.60;;;;;;;9.45;52.93;100575.69;1701940;83;21043;-78
2022/03/17 10:16:28;;;;;;;25.02;12.07;;;;;;;9.46;51.22;100576.55;1740380;81;21019;-79
2022/03/17 10:19:08;;;;;;;22.87;10.43;;;;;;;9.36;51.26;100580.84;1701273;83;21049;-81
2022/03/17 10:21:37;;;;;;;17.52;9.88;;;;;;;9.39;51.17;100585.16;1714338;83;20968;-81
2022/03/17 10:24:07;;;;;;;18.40;9.40;;;;;;;9.44;51.41;100591.25;1707120;83;20999;-81
2022/03/17 10:26:47;;;;;;;21.62;11.60;;;;;;;9.48;50.10;100584.77;1744887;81;21011;-80
2022/03/17 10:29:20;;;;;;;17.40;9.35;;;;;;;9.52;51.65;100590.84;1701773;83;21184;-79
2022/03/17 10:32:07;;;;;;;15.68;9.15;;;;;;;9.48;51.46;100595.59;1741657;81;21055;-78
2022/03/17 10:34:53;;;;;;;20.62;9.48;;;;;;;9.30;51.36;100584.71;1740639;81;21084;-79
2022/03/17 10:37:22;;;;;;;21.40;11.65;;;;;;;9.16;51.33;100591.14;1746256;81;21059;-81
2022/03/17 10:39:53;;;;;;;21.20;10.98;;;;;;;9.13;51.35;100593.70;1737609;81;21016;-82
2022/03/17 10:42:25;;;;;;;17.45;9.73;;;;;;;9.02;51.99;100594.96;1740713;81;21586;-81
2022/03/17 10:44:59;;;;;;;19.98;9.28;;;;;;;8.92;52.47;100598.37;1741605;81;20960;-79
2022/03/17 10:47:29;;;;;;;19.20;10.23;;;;;;;8.95;52.83;100597.96;1743379;81;21012;-80
2022/03/17 10:50:16;;;;;;;16.40;9.50;;;;;;;8.96;51.96;100593.20;1741306;81;20994;-81
2022/03/17 10:52:56;;;;;;;19.65;9.48;;;;;;;8.98;52.36;100588.47;1739802;81;21020;-80
2022/03/17 10:55:31;;;;;;;22.17;9.63;;;;;;;8.90;50.33;100586.68;1701899;83;20995;-80
2022/03/17 10:58:16;;;;;;;19.23;9.78;;;;;;;8.91;51.28;100593.63;1690836;84;21086;-81
2022/03/17 11:00:57;;;;;;;20.95;9.00;;;;;;;8.85;52.30;100583.62;1715841;83;21122;-79
2022/03/17 11:03:25;;;;;;;26.42;8.80;;;;;;;8.80;51.51;100595.70;1737785;81;21041;-79
2022/03/17 11:05:52;;;;;;;21.68;9.25;;;;;;;8.69;52.03;100591.73;1742727;81;21086;-79
2022/03/17 11:08:20;;;;;;;27.32;9.93;;;;;;;8.63;51.94;100588.66;1745994;81;21065;-79
2022/03/17 11:10:49;;;;;;;22.07;9.83;;;;;;;8.66;52.40;100594.32;1740818;81;21006;-79
2022/03/17 11:13:16;;;;;;;38.65;12.37;;;;;;;8.76;52.88;100588.33;1735375;81;21031;-79
2022/03/17 11:15:46;;;;;;;22.77;10.13;;;;;;;8.83;51.13;100586.20;1741402;81;21034;-79
2022/03/17 11:18:21;;;;;;;49.50;16.00;;;;;;;8.93;51.71;100589.30;1732076;81;21519;-80
2022/03/17 11:20:48;;;;;;;31.87;10.75;;;;;;;9.10;52.44;100589.81;1738033;81;21068;-80
2022/03/17 11:23:25;;;;;;;20.77;8.35;;;;;;;9.27;51.64;100582.98;1738285;81;21534;-78
2022/03/17 11:25:57;;;;;;;15.58;8.23;;;;;;;9.47;51.99;100586.05;1741930;81;22387;-79
2022/03/17 11:28:33;;;;;;;;;;;;;;;9.64;52.10;100586.12;1742853;81;21046;-79
2022/03/17 11:31:07;;;;;;;16.57;7.47;;;;;;;9.79;50.54;100591.77;1745243;81;20132;-80
2022/03/17 11:33:43;;;;;;;15.95;8.18;;;;;;;9.88;49.51;100586.59;1742768;81;21051;-79
2022/03/17 11:36:19;;;;;;;20.95;8.65;;;;;;;9.95;49.16;100584.02;1698704;83;22247;-79
2022/03/17 11:39:09;;;;;;;19.12;8.90;;;;;;;9.86;49.13;100586.59;1705558;83;21048;-79